Aérodrome :
LOGIN :

S'inscrire | Disclaimer

   EN    FR    IT 

 










Légende :    VFR   VFR Marginal   IFR   IFR Intensif   IFR Très Intensif
Visi : 
Plafond : 
>= 8 km
>= 3000ft
5 à 8 km
1000 à 3000 ft
1500m à 5 km
500 à 1000 ft
800 à 1500m
200 à 500 ft
< 800m
< 200 ft
Symboles :   Orages  Brouillard  Fortes neiges  Fortes précipitations  Vent > 20 kt
SIGMETs :   Divers  Orages  Givrage  Turbulence  Onde Orograph.  Cendres Volcan.







- Altitude de l'aérodrome : 20 ft


EBFN - Koksijde

DERNIER METAR :
  • 170355Z AUTO 01003KT 9999 OVC039/// 15/10 Q1022 BLU

METARs EXPIRÉS :
  • 170343Z AUTO 36004KT 9999 FEW024/// OVC040/// 14/11 Q1022 BLU
  • 170325Z AUTO 34003KT 9000 SCT023/// OVC040/// 14/13 Q1022 WHT
  • 170255Z AUTO VRB01KT 5000 OVC028/// 14/13 Q1022 WHT
  • 170253Z AUTO VRB01KT 4800 OVC030/// 14/12 Q1022 GRN
  • 170225Z AUTO 05003KT 9999 BKN041/// 14/12 Q1022 BLU
  • 170155Z AUTO VRB01KT 9999 SCT020/// BKN039/// 15/13 Q1022 WHT
  • 170125Z AUTO 24003KT 5000 FEW022/// OVC039/// 14/13 Q1022 WHT

TAF TAF EBFN
Valide du 16 à 19h jusqu'au 17 à 07h UTC


161541Z 1619/1707 02008KT 9999 FEW012 BKN022
TEMPO 1619/1622 SCT012
BECMG 1622/1700 35005KT 8000 BKN030
PROB30
TEMPO 1700/1707 SCT018
Pas de NOTAMs connus pour ce terrain.



MET'MAP, la Météo Aéronautique d'un coup d'oeil ! - Copyright ORBIFLY Décembre 2007 - Disclaimer

ORBIFLY MET'MAP TEAM :

Programmation & Développement : Alexandra Zaïnal
Conception & Développement : Baudouin d'Aumeries
Co-Programmation & Développement : Marc-Olivier Méhu
Soutien technique & logistique : Manuel Goepfert

Contact : metmap@orbifly.com




SOURCES & CREDITS :

   NOAA